Lomond, Canada
Current Conditions -  °F | °C
As of 1:00 AM on Thursday 27 Nov 2014 (Local Time) from CYDF Reporting Station
Overcast Overcast  
Wind Chill: 32°   Ceiling: 10000
Heat Index: 32°   Visibility: 15mi
Dew Point: 25°   Wind: 0mph
Humidity: 75%   Direction: NA
Pressure: 30.13"   Gusts: NA
Location:  49.45°N, 57.93°W
Report Text: CYDF 270400Z 00000KT 15SM OVC100 M00/M04 A3013 RMK AC8 SLP203
Loading
Personal Weather Stations






























Interactive Weather Map New forecast layout! Learn more

10-Day Weather Forecast

Advertisements
Track Severe Weather on mobile